Time;durP1;ratioP1;P1;durP2;ratioP2;P2;SDS_P1;SDS_P2;PMS_P1;PMS_P2;Temp;Humidity;BMP_temperature;BMP_pressure;BME280_temperature;BME280_humidity;BME280_pressure;Samples;Min_cycle;Max_cycle;Signal;HPM_P1;HPM_P2
2021/07/16 00:00:18;;;;;;;2.40;2.20;;;;;;;;;;3579578;39;105413;-61
2021/07/16 00:02:46;;;;;;;3.60;2.13;;;;;;;;;;3579948;39;107037;-61
2021/07/16 00:05:15;;;;;;;2.92;1.98;;;;;;;;;;3579246;39;107542;-61
2021/07/16 00:07:42;;;;;;;2.20;2.00;;;;;;;;;;3580203;39;105298;-61
2021/07/16 00:10:12;;;;;;;2.33;2.10;;;;;;;;;;3579813;39;105418;-61
2021/07/16 00:12:40;;;;;;;2.42;1.90;;;;;;;;;;3580095;39;106819;-62
2021/07/16 00:15:09;;;;;;;2.47;2.25;;;;;;;;;;3579768;39;107424;-62
2021/07/16 00:17:36;;;;;;;2.47;1.80;;;;;;;;;;3579332;39;105315;-61
2021/07/16 00:20:04;;;;;;;2.90;1.77;;;;;;;;;;3580132;39;105171;-61
2021/07/16 00:22:31;;;;;;;2.38;2.17;;;;;;;;;;3579684;39;106905;-61
2021/07/16 00:24:58;;;;;;;2.08;1.85;;;;;;;;;;3579317;39;107656;-61
2021/07/16 00:27:25;;;;;;;2.40;2.20;;;;;;;;;;3572756;39;105503;-61
2021/07/16 00:29:51;;;;;;;1.92;1.70;;;;;;;;;;3569408;39;105855;-61
2021/07/16 00:32:18;;;;;;;2.72;2.20;;;;;;;;;;3569098;39;107155;-61
2021/07/16 00:34:45;;;;;;;2.15;1.90;;;;;;;;;;3569656;39;107548;-61
2021/07/16 00:37:16;;;;;;;2.13;1.90;;;;;;;;;;3569777;39;105174;-61
2021/07/16 00:39:43;;;;;;;3.00;2.05;;;;;;;;;;3569280;39;107409;-61
2021/07/16 00:42:10;;;;;;;2.13;1.95;;;;;;;;;;3569722;39;106977;-62
2021/07/16 00:44:37;;;;;;;2.42;2.15;;;;;;;;;;3568850;39;108212;-61
2021/07/16 00:47:06;;;;;;;2.00;1.80;;;;;;;;;;3564729;39;105411;-60
2021/07/16 00:49:34;;;;;;;2.10;1.90;;;;;;;;;;3559613;39;105677;-61
2021/07/16 00:52:02;;;;;;;3.25;2.15;;;;;;;;;;3565385;39;107027;-61
2021/07/16 00:54:29;;;;;;;2.20;2.00;;;;;;;;;;3568860;39;107927;-61
2021/07/16 00:56:56;;;;;;;2.20;2.00;;;;;;;;;;3569245;39;105634;-61
2021/07/16 00:59:25;;;;;;;2.00;1.90;;;;;;;;;;3569015;39;105542;-61
2021/07/16 01:01:55;;;;;;;1.80;1.70;;;;;;;;;;3568759;39;107161;-61
2021/07/16 01:04:23;;;;;;;;;;;;;;;;;;3565091;39;107503;-61
2021/07/16 01:06:50;;;;;;;;;;;;;;;;;;3570717;39;130622;-61
2021/07/16 01:09:16;;;;;;;;;;;;;;;;;;3561401;39;129823;-61
2021/07/16 01:11:43;;;;;;;;;;;;;;;;;;3569888;39;137521;-61
2021/07/16 01:14:11;;;;;;;;;;;;;;;;;;3570454;39;137141;-61
2021/07/16 01:16:39;;;;;;;;;;;;;;;;;;3569944;39;131161;-61
2021/07/16 01:19:07;;;;;;;;;;;;;;;;;;3570713;39;129779;-61
2021/07/16 01:21:35;;;;;;;;;;;;;;;;;;3570111;39;137056;-61
2021/07/16 01:24:03;;;;;;;;;;;;;;;;;;3570257;39;137141;-62
2021/07/16 01:26:31;;;;;;;;;;;;;;;;;;3570274;39;131236;-61
2021/07/16 01:29:02;;;;;;;;;;;;;;;;;;3570382;39;129178;-61
2021/07/16 01:31:30;;;;;;;;;;;;;;;;;;3560495;39;136502;-60
2021/07/16 01:33:56;;;;;;;;;;;;;;;;;;3570035;39;137540;-61
2021/07/16 01:36:23;;;;;;;;;;;;;;;;;;3570518;39;131267;-61
2021/07/16 01:38:50;;;;;;;;;;;;;;;;;;3570278;39;130532;-61
2021/07/16 01:41:17;;;;;;;;;;;;;;;;;;3570370;39;137061;-61
2021/07/16 01:43:43;;;;;;;;;;;;;;;;;;3570072;39;136963;-61
2021/07/16 01:46:10;;;;;;;;;;;;;;;;;;3570512;39;130621;-61
2021/07/16 01:48:37;;;;;;;;;;;;;;;;;;3570466;39;130537;-61
2021/07/16 01:51:03;;;;;;;;;;;;;;;;;;3569863;39;136402;-61
2021/07/16 01:53:30;;;;;;;;;;;;;;;;;;3570060;39;136966;-61
2021/07/16 01:55:57;;;;;;;;;;;;;;;;;;3570209;39;131376;-62
2021/07/16 01:58:24;;;;;;;;;;;;;;;;;;3570549;39;128181;-61
2021/07/16 02:00:51;;;;;;;;;;;;;;;;;;3569663;39;136748;-60
2021/07/16 02:03:18;;;;;;;;;;;;;;;;;;3570212;39;136783;-61
2021/07/16 02:05:46;;;;;;;;;;;;;;;;;;3570156;39;130775;-61
2021/07/16 02:08:15;;;;;;;;;;;;;;;;;;3569981;39;129330;-60
2021/07/16 02:10:43;;;;;;;;;;;;;;;;;;3569975;39;137060;-60
2021/07/16 02:13:10;;;;;;;;;;;;;;;;;;3569848;39;137763;-61
2021/07/16 02:15:38;;;;;;;;;;;;;;;;;;3570211;39;131454;-61
2021/07/16 02:18:06;;;;;;;;;;;;;;;;;;3569574;39;130358;-61
2021/07/16 02:20:37;;;;;;;;;;;;;;;;;;3569957;39;136389;-61
2021/07/16 02:23:09;;;;;;;;;;;;;;;;;;3570159;39;135324;-62
2021/07/16 02:25:35;;;;;;;;;;;;;;;;;;3570107;39;130573;-61
2021/07/16 02:28:07;;;;;;;;;;;;;;;;;;3570446;39;128266;-61
2021/07/16 02:30:34;;;;;;;;;;;;;;;;;;3569407;39;136517;-61
2021/07/16 02:33:01;;;;;;;;;;;;;;;;;;3560426;39;137001;-60
2021/07/16 02:35:29;;;;;;;;;;;;;;;;;;3570028;39;130676;-61
2021/07/16 02:37:56;;;;;;;;;;;;;;;;;;3569897;39;129764;-61
2021/07/16 02:40:23;;;;;;;;;;;;;;;;;;3570002;39;136414;-60
2021/07/16 02:42:50;;;;;;;;;;;;;;;;;;3569776;39;137161;-61
2021/07/16 02:45:18;;;;;;;;;;;;;;;;;;3570272;39;130618;-61
2021/07/16 02:47:46;;;;;;;;;;;;;;;;;;3569863;39;129770;-61
2021/07/16 02:50:15;;;;;;;;;;;;;;;;;;3569805;39;136700;-61
2021/07/16 02:52:43;;;;;;;;;;;;;;;;;;3570030;39;137756;-61
2021/07/16 02:55:10;;;;;;;;;;;;;;;;;;3569994;39;128732;-61
2021/07/16 02:57:37;;;;;;;;;;;;;;;;;;3570065;39;128920;-62
2021/07/16 03:00:06;;;;;;;;;;;;;;;;;;3560175;39;136548;-60
2021/07/16 03:02:40;;;;;;;;;;;;;;;;;;3567017;39;137832;-60
2021/07/16 03:05:08;;;;;;;;;;;;;;;;;;3570074;39;131123;-61
2021/07/16 03:07:36;;;;;;;;;;;;;;;;;;3569167;39;128559;-61
2021/07/16 03:10:06;;;;;;;;;;;;;;;;;;3569757;39;137166;-62
2021/07/16 03:12:33;;;;;;;;;;;;;;;;;;3569888;39;137190;-61
2021/07/16 03:15:00;;;;;;;;;;;;;;;;;;3569693;39;131504;-61
2021/07/16 03:17:27;;;;;;;;;;;;;;;;;;3557870;39;129816;-61
2021/07/16 03:19:54;;;;;;;;;;;;;;;;;;3565981;39;136601;-61
2021/07/16 03:22:21;;;;;;;;;;;;;;;;;;3569755;39;137038;-61
2021/07/16 03:24:47;;;;;;;;;;;;;;;;;;3570201;39;130522;-61
2021/07/16 03:27:14;;;;;;;;;;;;;;;;;;3568898;39;129962;-61
2021/07/16 03:29:41;;;;;;;;;;;;;;;;;;3569737;39;136229;-61
2021/07/16 03:32:08;;;;;;;;;;;;;;;;;;3569523;39;137636;-61
2021/07/16 03:34:34;;;;;;;;;;;;;;;;;;3570063;39;130563;-61
2021/07/16 03:37:04;;;;;;;;;;;;;;;;;;3569721;39;129986;-62
2021/07/16 03:39:35;;;;;;;;;;;;;;;;;;3560138;39;138601;-61
2021/07/16 03:42:05;;;;;;;;;;;;;;;;;;3569632;39;137097;-61
2021/07/16 03:44:32;;;;;;;;;;;;;;;;;;3569807;39;130718;-61
2021/07/16 03:47:10;;;;;;;;;;;;;;;;;;3569934;39;129760;-61
2021/07/16 03:49:37;;;;;;;;;;;;;;;;;;3569429;39;136630;-61
2021/07/16 03:52:04;;;;;;;;;;;;;;;;;;3569775;39;137069;-61
2021/07/16 03:54:31;;;;;;;;;;;;;;;;;;3569331;39;130614;-62
2021/07/16 03:56:58;;;;;;;;;;;;;;;;;;3570029;39;129765;-61
2021/07/16 03:59:24;;;;;;;;;;;;;;;;;;3569232;39;137024;-62
2021/07/16 04:01:52;;;;;;;;;;;;;;;;;;3566937;39;135812;-61
2021/07/16 04:04:19;;;;;;;;;;;;;;;;;;3569041;39;131241;-61
2021/07/16 04:06:56;;;;;;;;;;;;;;;;;;3569847;39;130559;-61
2021/07/16 04:09:27;;;;;;;;;;;;;;;;;;3561314;39;136481;-62
2021/07/16 04:12:23;;;;;;;;;;;;;;;;;;3562539;39;137121;-62
2021/07/16 04:14:52;;;;;;;;;;;;;;;;;;3554882;39;131241;-61
2021/07/16 04:17:20;;;;;;;;;;;;;;;;;;3569234;39;129526;-62
2021/07/16 04:19:47;;;;;;;;;;;;;;;;;;3567148;39;136005;-61
2021/07/16 04:22:14;;;;;;;;;;;;;;;;;;3559433;39;137014;-62
2021/07/16 04:24:42;;;;;;;;;;;;;;;;;;3561074;39;130567;-62
2021/07/16 04:27:09;;;;;;;;;;;;;;;;;;3569640;39;129678;-62
2021/07/16 04:29:36;;;;;;;;;;;;;;;;;;3559193;39;137104;-63
2021/07/16 04:32:03;;;;;;;;;;;;;;;;;;3559035;39;137777;-62
2021/07/16 04:34:31;;;;;;;;;;;;;;;;;;3568172;39;130568;-63
2021/07/16 04:36:58;;;;;;;;;;;;;;;;;;3569647;39;130237;-63
2021/07/16 04:39:25;;;;;;;;;;;;;;;;;;3566295;39;136529;-62
2021/07/16 04:41:52;;;;;;;;;;;;;;;;;;3569663;39;137018;-62
2021/07/16 04:44:20;;;;;;;;;;;;;;;;;;3569057;39;131469;-61
2021/07/16 04:46:47;;;;;;;;;;;;;;;;;;3568815;39;129799;-61
2021/07/16 04:49:14;;;;;;;;;;;;;;;;;;3569139;39;136635;-61
2021/07/16 04:51:41;;;;;;;;;;;;;;;;;;3568772;39;136897;-62
2021/07/16 04:54:10;;;;;;;;;;;;;;;;;;3568840;39;129543;-61
2021/07/16 04:56:36;;;;;;;;;;;;;;;;;;3569047;39;129824;-62
2021/07/16 04:59:03;;;;;;;;;;;;;;;;;;3568371;39;137222;-62
2021/07/16 05:01:30;;;;;;;;;;;;;;;;;;3568803;39;137377;-62
2021/07/16 05:03:57;;;;;;;;;;;;;;;;;;3569200;39;130550;-62
2021/07/16 05:06:24;;;;;;;;;;;;;;;;;;3568638;39;129780;-62
2021/07/16 05:08:51;;;;;;;;;;;;;;;;;;3559253;39;137085;-61
2021/07/16 05:11:19;;;;;;;;;;;;;;;;;;3568922;39;136670;-62
2021/07/16 05:13:46;;;;;;;;;;;;;;;;;;3568793;39;129025;-62
2021/07/16 05:16:13;;;;;;;;;;;;;;;;;;3568762;39;129458;-61
2021/07/16 05:18:42;;;;;;;;;;;;;;;;;;3568496;39;136337;-62
2021/07/16 05:21:09;;;;;;;;;;;;;;;;;;3568721;39;137783;-62
2021/07/16 05:23:39;;;;;;;;;;;;;;;;;;3568826;39;132099;-62
2021/07/16 05:26:05;;;;;;;;;;;;;;;;;;3569806;39;129781;-62
2021/07/16 05:28:32;;;;;;;;;;;;;;;;;;3578816;39;136939;-62
2021/07/16 05:30:59;;;;;;;;;;;;;;;;;;3578860;39;136928;-61
2021/07/16 05:33:26;;;;;;;;;;;;;;;;;;3578838;39;131156;-62
2021/07/16 05:35:53;;;;;;;;;;;;;;;;;;3578898;39;128362;-62
2021/07/16 05:38:25;;;;;;;;;;;;;;;;;;3578553;39;134864;-63
2021/07/16 05:40:51;;;;;;;;;;;;;;;;;;3578552;39;137763;-61
2021/07/16 05:43:19;;;;;;;;;;;;;;;;;;3579086;39;130523;-62
2021/07/16 05:45:46;;;;;;;;;;;;;;;;;;3578803;39;129743;-61
2021/07/16 05:48:12;;;;;;;;;;;;;;;;;;3578075;39;137107;-61
2021/07/16 05:50:40;;;;;;;;;;;;;;;;;;3578612;39;137478;-62
2021/07/16 05:53:08;;;;;;;;;;;;;;;;;;3580363;39;131723;-62
2021/07/16 05:55:36;;;;;;;;;;;;;;;;;;3580416;39;129905;-61
2021/07/16 05:58:03;;;;;;;;;;;;;;;;;;3580185;39;136932;-61
2021/07/16 06:00:30;;;;;;;;;;;;;;;;;;3580243;39;137210;-61
2021/07/16 06:02:56;;;;;;;;;;;;;;;;;;3580243;39;130593;-61
2021/07/16 06:05:23;;;;;;;;;;;;;;;;;;3580122;39;129917;-61
2021/07/16 06:07:50;;;;;;;;;;;;;;;;;;3579993;39;136469;-61
2021/07/16 06:10:17;;;;;;;;;;;;;;;;;;3580108;39;137090;-62
2021/07/16 06:12:44;;;;;;;;;;;;;;;;;;3580177;39;131030;-62
2021/07/16 06:15:11;;;;;;;;;;;;;;;;;;3579938;39;129811;-62
2021/07/16 06:17:38;;;;;;;;;;;;;;;;;;3579712;39;134691;-62
2021/07/16 06:20:06;;;;;;;;;;;;;;;;;;3580011;39;137044;-62
2021/07/16 06:22:33;;;;;;;;;;;;;;;;;;3580459;39;130712;-62
2021/07/16 06:25:00;;;;;;;;;;;;;;;;;;3580103;39;129866;-62
2021/07/16 06:27:27;;;;;;;;;;;;;;;;;;3579501;39;136634;-62
2021/07/16 06:29:54;;;;;;;;;;;;;;;;;;3579895;39;136943;-62
2021/07/16 06:32:21;;;;;;;;;;;;;;;;;;3580249;39;130606;-62
2021/07/16 06:34:47;;;;;;;;;;;;;;;;;;3580100;39;130697;-61
2021/07/16 06:37:14;;;;;;;;;;;;;;;;;;3579851;39;137121;-62
2021/07/16 06:39:41;;;;;;;;;;;;;;;;;;3580005;39;138416;-61
2021/07/16 06:42:08;;;;;;;;;;;;;;;;;;3579917;39;130817;-62
2021/07/16 06:44:35;;;;;;;;;;;;;;;;;;3579722;39;130024;-61
2021/07/16 06:47:02;;;;;;;;;;;;;;;;;;3580100;39;136181;-62
2021/07/16 06:49:28;;;;;;;;;;;;;;;;;;3579527;39;138305;-62
2021/07/16 06:51:56;;;;;;;;;;;;;;;;;;3580143;39;130489;-62
2021/07/16 06:54:24;;;;;;;;;;;;;;;;;;3580248;39;129791;-62
2021/07/16 06:56:51;;;;;;;;;;;;;;;;;;3579464;39;137026;-62
2021/07/16 06:59:19;;;;;;;;;;;;;;;;;;3579633;39;137808;-62
2021/07/16 07:01:46;;;;;;;;;;;;;;;;;;3579856;39;130632;-61
2021/07/16 07:04:16;;;;;;;;;;;;;;;;;;3574624;39;129915;-61
2021/07/16 07:06:43;;;;;;;;;;;;;;;;;;3573868;39;137167;-61
2021/07/16 07:09:10;;;;;;;;;;;;;;;;;;3573722;39;137354;-61
2021/07/16 07:11:37;;;;;;;;;;;;;;;;;;3573647;39;130911;-61
2021/07/16 07:14:04;;;;;;;;;;;;;;;;;;3574328;39;130366;-61
2021/07/16 07:16:31;;;;;;;;;;;;;;;;;;3575980;39;136984;-61
2021/07/16 07:18:58;;;;;;;;;;;;;;;;;;3570740;39;136876;-62
2021/07/16 07:21:25;;;;;;;;;;;;;;;;;;3579771;39;131257;-62
2021/07/16 07:23:52;;;;;;;;;;;;;;;;;;3577629;39;128578;-62
2021/07/16 07:26:19;;;;;;;;;;;;;;;;;;3577296;39;136446;-62
2021/07/16 07:28:45;;;;;;;;;;;;;;;;;;3569342;39;137200;-64
2021/07/16 07:31:12;;;;;;;;;;;;;;;;;;3568108;39;130803;-60
2021/07/16 07:33:39;;;;;;;;;;;;;;;;;;3566924;39;129998;-61
2021/07/16 07:36:05;;;;;;;;;;;;;;;;;;3568901;39;136790;-62
2021/07/16 07:38:34;;;;;;;;;;;;;;;;;;3567486;39;137335;-60
2021/07/16 07:41:01;;;;;;;;;;;;;;;;;;3558632;39;132960;-61
2021/07/16 07:43:28;;;;;;;;;;;;;;;;;;3558585;39;129827;-60
2021/07/16 07:45:55;;;;;;;;;;;;;;;;;;3558551;39;136619;-60
2021/07/16 07:48:22;;;;;;;;;;;;;;;;;;3558566;39;137601;-60
2021/07/16 07:50:49;;;;;;;;;;;;;;;;;;3559442;39;128957;-60
2021/07/16 07:53:15;;;;;;;;;;;;;;;;;;3559015;39;130100;-60
2021/07/16 07:55:42;;;;;;;;;;;;;;;;;;3558959;39;134757;-60
2021/07/16 07:58:09;;;;;;;;;;;;;;;;;;3559006;39;137775;-60
2021/07/16 08:00:36;;;;;;;;;;;;;;;;;;3559052;39;130247;-61
2021/07/16 08:03:03;;;;;;;;;;;;;;;;;;3559248;39;130204;-60
2021/07/16 08:05:30;;;;;;;;;;;;;;;;;;3559402;39;136380;-60
2021/07/16 08:07:57;;;;;;;;;;;;;;;;;;3559030;39;137162;-60
2021/07/16 08:10:24;;;;;;;;;;;;;;;;;;3559316;39;130694;-60
2021/07/16 08:12:51;;;;;;;;;;;;;;;;;;3559014;39;130299;-60
2021/07/16 08:15:18;;;;;;;;;;;;;;;;;;3558967;39;136485;-60
2021/07/16 08:17:46;;;;;;;;;;;;;;;;;;3558803;39;137107;-60
2021/07/16 08:20:13;;;;;;;;;;;;;;;;;;3559020;39;131001;-60
2021/07/16 08:22:40;;;;;;;;;;;;;;;;;;3559018;39;129643;-60
2021/07/16 08:25:07;;;;;;;;;;;;;;;;;;3558875;39;136650;-60
2021/07/16 08:27:34;;;;;;;;;;;;;;;;;;3565996;39;137495;-60
2021/07/16 08:30:02;;;;;;;;;;;;;;;;;;3568771;39;131355;-60
2021/07/16 08:32:31;;;;;;;;;;;;;;;;;;3568898;39;129783;-61
2021/07/16 08:34:58;;;;;;;;;;;;;;;;;;3568911;39;134906;-60
2021/07/16 08:37:24;;;;;;;;;;;;;;;;;;3568800;39;137105;-60
2021/07/16 08:39:51;;;;;;;;;;;;;;;;;;3569293;39;130676;-60
2021/07/16 08:42:18;;;;;;;;;;;;;;;;;;3569113;39;129926;-60
2021/07/16 08:44:45;;;;;;;;;;;;;;;;;;3568913;39;136986;-61
2021/07/16 08:47:12;;;;;;;;;;;;;;;;;;3568668;39;136952;-61
2021/07/16 08:49:39;;;;;;;;;;;;;;;;;;3568596;39;131279;-60
2021/07/16 08:52:06;;;;;;;;;;;;;;;;;;3569002;39;130489;-57
2021/07/16 08:54:37;;;;;;;;;;;;;;;;;;3568486;39;136939;-60
2021/07/16 08:57:05;;;;;;;;;;;;;;;;;;3568668;39;135571;-60
2021/07/16 08:59:31;;;;;;;;;;;;;;;;;;3568963;39;130588;-60
2021/07/16 09:02:02;;;;;;;;;;;;;;;;;;3571648;39;129887;-60
2021/07/16 09:04:35;;;;;;;;;;;;;;;;;;3570304;39;136888;-60
2021/07/16 09:07:03;;;;;;;;;;;;;;;;;;3567910;39;137079;-60
2021/07/16 09:09:36;;;;;;;;;;;;;;;;;;3567779;39;131302;-60
2021/07/16 09:12:09;;;;;;;;;;;;;;;;;;3568297;39;129954;-60
2021/07/16 09:14:37;;;;;;;;;;;;;;;;;;3565143;39;136382;-61
2021/07/16 09:17:10;;;;;;;;;;;;;;;;;;3557027;39;136887;-61
2021/07/16 09:19:42;;;;;;;;;;;;;;;;;;3556924;39;129783;-60
2021/07/16 09:22:12;;;;;;;;;;;;;;;;;;3571527;39;129828;-60
2021/07/16 09:24:43;;;;;;;;;;;;;;;;;;3558663;39;137304;-60
2021/07/16 09:27:29;;;;;;;;;;;;;;;;;;3571443;39;137108;-60
2021/07/16 09:30:13;;;;;;;;;;;;;;;;;;3580320;39;130579;-60
2021/07/16 09:32:40;;;;;;;;;;;;;;;;;;3565224;39;131074;-60
2021/07/16 09:35:08;;;;;;;;;;;;;;;;;;3564178;39;136442;-61
2021/07/16 09:37:55;;;;;;;;;;;;;;;;;;3555402;39;137854;-61
2021/07/16 09:40:28;;;;;;;;;;;;;;;;;;3565039;39;129711;-61
2021/07/16 09:42:58;;;;;;;;;;;;;;;;;;3563835;39;127197;-61
2021/07/16 09:45:25;;;;;;;;;;;;;;;;;;3567771;39;136453;-60
2021/07/16 09:47:52;;;;;;;;;;;;;;;;;;3564708;39;137696;-62
2021/07/16 09:50:22;;;;;;;;;;;;;;;;;;3554176;39;128948;-61
2021/07/16 09:53:12;;;;;;;;;;;;;;;;;;3564340;39;129842;-60
2021/07/16 09:55:41;;;;;;;;;;;;;;;;;;3560624;39;137128;-60
2021/07/16 09:58:24;;;;;;;;;;;;;;;;;;3563689;39;137166;-64
2021/07/16 10:00:52;;;;;;;;;;;;;;;;;;3564619;39;129205;-64
2021/07/16 10:03:20;;;;;;;;;;;;;;;;;;3564659;39;129898;-64
2021/07/16 10:05:50;;;;;;;;;;;;;;;;;;3564077;39;136484;-63
2021/07/16 10:08:17;;;;;;;;;;;;;;;;;;3563331;39;136821;-64
2021/07/16 10:10:45;;;;;;;;;;;;;;;;;;3564418;39;130651;-64
2021/07/16 10:13:12;;;;;;;;;;;;;;;;;;3564391;39;129779;-63
2021/07/16 10:15:47;;;;;;;;;;;;;;;;;;3567292;39;137017;-64
2021/07/16 10:18:14;;;;;;;;;;;;;;;;;;3563819;39;137278;-64
2021/07/16 10:20:40;;;;;;;;;;;;;;;;;;3564722;39;131194;-63
2021/07/16 10:23:09;;;;;;;;;;;;;;;;;;3564339;39;130040;-63
2021/07/16 10:25:36;;;;;;;;;;;;;;;;;;3563442;39;136932;-63
2021/07/16 10:28:03;;;;;;;;;;;;;;;;;;3573278;39;137752;-62
2021/07/16 10:30:34;;;;;;;;;;;;;;;;;;3574590;39;130511;-63
2021/07/16 10:33:01;;;;;;;;;;;;;;;;;;3573761;39;130476;-62
2021/07/16 10:35:29;;;;;;;;;;;;;;;;;;3574009;39;136575;-63
2021/07/16 10:38:00;;;;;;;;;;;;;;;;;;3573459;39;137778;-63
2021/07/16 10:40:48;;;;;;;;;;;;;;;;;;3574147;39;129065;-62
2021/07/16 10:43:27;;;;;;;;;;;;;;;;;;3573682;39;129724;-62
2021/07/16 10:45:58;;;;;;;;;;;;;;;;;;3573560;39;136779;-60
2021/07/16 10:48:32;;;;;;;;;;;;;;;;;;3573920;39;137768;-65
2021/07/16 10:51:00;;;;;;;;;;;;;;;;;;3565241;39;131205;-62
2021/07/16 10:53:27;;;;;;;;;;;;;;;;;;3574345;39;130441;-61
2021/07/16 10:55:57;;;;;;;;;;;;;;;;;;3574512;39;137403;-62
2021/07/16 10:58:28;;;;;;;;;;;;;;;;;;3573396;39;137558;-62
2021/07/16 11:00:55;;;;;;;;;;;;;;;;;;3574895;39;132549;-62
2021/07/16 11:03:39;;;;;;;;;;;;;;;;;;3573320;39;129177;-62
2021/07/16 11:06:07;;;;;;;;;;;;;;;;;;3573366;39;137023;-63
2021/07/16 11:08:35;;;;;;;;;;;;;;;;;;3574590;39;136969;-63
2021/07/16 11:11:03;;;;;;;;;;;;;;;;;;3568303;39;130989;-61
2021/07/16 11:13:36;;;;;;;;;;;;;;;;;;3574417;39;129253;-61
2021/07/16 11:16:15;;;;;;;;;;;;;;;;;;3573147;39;137118;-61
2021/07/16 11:18:52;;;;;;;;;;;;;;;;;;3564103;39;136724;-65
2021/07/16 11:21:40;;;;;;;;;;;;;;;;;;3573705;39;128974;-65
2021/07/16 11:24:20;;;;;;;;;;;;;;;;;;3573922;39;129743;-66
2021/07/16 11:26:47;;;;;;;;;;;;;;;;;;3573185;39;136570;-65
2021/07/16 11:29:16;;;;;;;;;;;;;;;;;;3574516;39;137088;-65
2021/07/16 11:31:43;;;;;;;;;;;;;;;;;;3573408;39;130602;-65
2021/07/16 11:34:13;;;;;;;;;;;;;;;;;;3574311;39;129948;-66
2021/07/16 11:36:50;;;;;;;;;;;;;;;;;;3563928;39;137112;-65
2021/07/16 11:39:29;;;;;;;;;;;;;;;;;;3573202;39;137810;-64
2021/07/16 11:41:58;;;;;;;;;;;;;;;;;;3564252;39;133117;-62
2021/07/16 11:44:25;;;;;;;;;;;;;;;;;;3574625;39;129699;-65
2021/07/16 11:46:53;;;;;;;;;;;;;;;;;;3574067;39;137474;-65
2021/07/16 11:49:22;;;;;;;;;;;;;;;;;;3564950;39;137013;-64
2021/07/16 11:51:56;;;;;;;;;;;;;;;;;;3569840;39;130802;-65
2021/07/16 11:54:26;;;;;;;;;;;;;;;;;;3569030;39;129743;-65
2021/07/16 11:56:54;;;;;;;;;;;;;;;;;;3579229;39;136991;-66
2021/07/16 11:59:22;;;;;;;;;;;;;;;;;;3572563;39;136717;-61
2021/07/16 12:02:05;;;;;;;;;;;;;;;;;;3572575;39;130595;-62
2021/07/16 12:04:32;;;;;;;;;;;;;;;;;;3572461;39;128951;-64
2021/07/16 12:07:03;;;;;;;;;;;;;;;;;;3574039;39;136295;-64
2021/07/16 12:09:30;;;;;;;;;;;;;;;;;;3572153;39;137885;-64
2021/07/16 12:12:04;;;;;;;;;;;;;;;;;;3573520;39;129227;-64
2021/07/16 12:14:50;;;;;;;;;;;;;;;;;;3572674;39;129898;-63
2021/07/16 12:17:18;;;;;;;;;;;;;;;;;;3572724;39;137206;-65
2021/07/16 12:19:46;;;;;;;;;;;;;;;;;;3573318;39;137612;-66
2021/07/16 12:22:14;;;;;;;;;;;;;;;;;;3573431;39;130643;-66
2021/07/16 12:24:41;;;;;;;;;;;;;;;;;;3563020;39;129957;-66
2021/07/16 12:27:10;;;;;;;;;;;;;;;;;;3571848;39;135402;-64
2021/07/16 12:29:38;;;;;;;;;;;;;;;;;;3572053;39;136236;-66
2021/07/16 12:32:09;;;;;;;;;;;;;;;;;;3573665;39;131550;-66
2021/07/16 12:34:42;;;;;;;;;;;;;;;;;;3563021;39;129871;-64
2021/07/16 12:37:09;;;;;;;;;;;;;;;;;;3572589;39;137376;-66
2021/07/16 12:39:36;;;;;;;;;;;;;;;;;;3572909;39;136974;-65
2021/07/16 12:42:18;;;;;;;;;;;;;;;;;;3573264;39;132084;-65
2021/07/16 12:45:01;;;;;;;;;;;;;;;;;;3573379;39;130509;-65
2021/07/16 12:47:28;;;;;;;;;;;;;;;;;;3572374;39;137187;-66
2021/07/16 12:50:13;;;;;;;;;;;;;;;;;;3572623;39;137969;-67
2021/07/16 12:52:41;;;;;;;;;;;;;;;;;;3564082;39;130848;-67
2021/07/16 12:55:15;;;;;;;;;;;;;;;;;;3572374;39;132417;-66
2021/07/16 12:57:42;;;;;;;;;;;;;;;;;;3572310;39;134900;-66
2021/07/16 13:00:13;;;;;;;;;;;;;;;;;;3573250;39;137430;-66
2021/07/16 13:02:43;;;;;;;;;;;;;;;;;;3571895;39;130904;-66
2021/07/16 13:05:10;;;;;;;;;;;;;;;;;;3564790;39;129973;-66
2021/07/16 13:07:38;;;;;;;;;;;;;;;;;;3578028;39;137259;-66
2021/07/16 13:10:25;;;;;;;;;;;;;;;;;;3580512;39;138014;-64
2021/07/16 13:13:01;;;;;;;;;;;;;;;;;;3575889;39;131265;-66
2021/07/16 13:15:30;;;;;;;;;;;;;;;;;;3573194;39;129847;-68
2021/07/16 13:18:05;;;;;;;;;;;;;;;;;;3569773;39;133206;-66
2021/07/16 13:20:32;;;;;;;;;;;;;;;;;;3577016;39;137763;-67
2021/07/16 13:22:59;;;;;;;;;;;;;;;;;;3580350;39;130683;-65
2021/07/16 13:25:25;;;;;;;;;;;;;;;;;;3574768;39;130619;-66
2021/07/16 13:27:52;;;;;;;;;;;;;;;;;;3580623;39;136832;-66
2021/07/16 13:30:19;;;;;;;;;;;;;;;;;;3573290;39;137869;-66
2021/07/16 13:32:45;;;;;;;;;;;;;;;;;;3570654;39;130567;-66
2021/07/16 13:48:04;;;;;;;6.93;4.10;;;;;;;;;;3543429;39;105681;-59
2021/07/16 13:50:32;;;;;;;5.50;3.70;;;;;;;;;;3539176;39;105978;-59
2021/07/16 13:52:59;;;;;;;5.45;3.92;;;;;;;;;;3534791;39;106806;-63
2021/07/16 13:55:26;;;;;;;5.97;4.30;;;;;;;;;;3540150;39;107438;-62
2021/07/16 13:57:53;;;;;;;7.72;3.85;;;;;;;;;;3540131;39;107567;-59
2021/07/16 14:00:20;;;;;;;4.97;3.88;;;;;;;;;;3540649;39;105984;-62
2021/07/16 14:02:48;;;;;;;4.97;3.80;;;;;;;;;;3539802;39;106153;-64
2021/07/16 14:05:17;;;;;;;5.25;4.05;;;;;;;;;;3538301;39;107723;-62
2021/07/16 18:28:45;;;;;;;3.08;2.22;;;;;;;;;;3542608;39;104799;-21
2021/07/16 18:31:14;;;;;;;3.67;1.92;;;;;;;;;;3543160;39;104469;-24
2021/07/16 18:33:46;;;;;;;3.20;1.70;;;;;;;;;;3542962;39;105771;-24
